Terminal Aerodrome Forecast
Issued by NWS

Home | Current Version | Previous Version | Text Only | Print | Product List | Glossary On
Versions: 1 2 3 4 5 6 7 8 9 10 11 12 13 14 15 16 17 18 19 20 21 22 23 24
000
FTUS46 KMTR 280500
TAFSFO
TAF
KSFO 280520Z 2806/2912 27012KT P6SM FEW010 SCT150
     FM281000 27005KT P6SM BKN010 BKN150
     FM281800 30010KT P6SM FEW010 SCT200
     FM282000 30015KT P6SM SCT200
     FM290400 30009KT P6SM SCT200=

USA.gov is the U.S. government's official web portal to all federal, state and local government web resources and services.